sensor_id;sensor_type;location;lat;lon;timestamp;P1;durP1;ratioP1;P2;durP2;ratioP2
55065;SDS011;40964;42.114;24.220;2023-04-03T00:00:55;2.35;;;1.33;;
55065;SDS011;40964;42.114;24.220;2023-04-03T00:03:22;3.33;;;0.80;;
55065;SDS011;40964;42.114;24.220;2023-04-03T00:05:47;2.22;;;1.15;;
55065;SDS011;40964;42.114;24.220;2023-04-03T00:08:13;0.90;;;0.90;;
55065;SDS011;40964;42.114;24.220;2023-04-03T00:10:38;1.60;;;1.00;;
55065;SDS011;40964;42.114;24.220;2023-04-03T00:13:04;1.38;;;0.82;;
55065;SDS011;40964;42.114;24.220;2023-04-03T00:15:31;1.25;;;0.90;;
55065;SDS011;40964;42.114;24.220;2023-04-03T00:17:57;0.88;;;0.80;;
55065;SDS011;40964;42.114;24.220;2023-04-03T00:20:22;0.77;;;0.52;;
55065;SDS011;40964;42.114;24.220;2023-04-03T00:25:22;0.73;;;0.55;;
55065;SDS011;40964;42.114;24.220;2023-04-03T00:27:47;0.65;;;0.50;;
55065;SDS011;40964;42.114;24.220;2023-04-03T00:30:13;3.88;;;1.00;;
55065;SDS011;40964;42.114;24.220;2023-04-03T00:32:40;1.20;;;0.70;;
55065;SDS011;40964;42.114;24.220;2023-04-03T00:35:05;1.00;;;0.70;;
55065;SDS011;40964;42.114;24.220;2023-04-03T00:37:31;0.57;;;0.57;;
55065;SDS011;40964;42.114;24.220;2023-04-03T00:39:57;0.90;;;0.70;;
55065;SDS011;40964;42.114;24.220;2023-04-03T00:42:22;0.63;;;0.60;;
55065;SDS011;40964;42.114;24.220;2023-04-03T00:47:15;0.65;;;0.65;;
55065;SDS011;40964;42.114;24.220;2023-04-03T00:49:43;2.55;;;1.55;;
55065;SDS011;40964;42.114;24.220;2023-04-03T00:52:11;4.65;;;2.38;;
55065;SDS011;40964;42.114;24.220;2023-04-03T00:54:41;1.35;;;1.10;;
55065;SDS011;40964;42.114;24.220;2023-04-03T00:57:08;1.13;;;0.68;;
55065;SDS011;40964;42.114;24.220;2023-04-03T00:59:36;0.63;;;0.60;;
55065;SDS011;40964;42.114;24.220;2023-04-03T01:02:06;0.57;;;0.57;;
55065;SDS011;40964;42.114;24.220;2023-04-03T01:07:06;0.77;;;0.60;;
55065;SDS011;40964;42.114;24.220;2023-04-03T01:09:53;0.80;;;0.80;;
55065;SDS011;40964;42.114;24.220;2023-04-03T01:14:51;0.73;;;0.45;;
55065;SDS011;40964;42.114;24.220;2023-04-03T01:27:57;1.45;;;0.90;;
55065;SDS011;40964;42.114;24.220;2023-04-03T01:30:24;0.77;;;0.70;;
55065;SDS011;40964;42.114;24.220;2023-04-03T01:32:55;0.60;;;0.60;;
55065;SDS011;40964;42.114;24.220;2023-04-03T01:35:21;1.05;;;0.77;;
55065;SDS011;40964;42.114;24.220;2023-04-03T01:37:47;2.08;;;0.98;;
55065;SDS011;40964;42.114;24.220;2023-04-03T01:40:12;1.73;;;1.25;;
55065;SDS011;40964;42.114;24.220;2023-04-03T01:42:37;1.17;;;1.02;;
55065;SDS011;40964;42.114;24.220;2023-04-03T01:45:03;1.50;;;1.20;;
55065;SDS011;40964;42.114;24.220;2023-04-03T01:47:29;3.13;;;1.30;;
55065;SDS011;40964;42.114;24.220;2023-04-03T01:49:54;1.42;;;1.05;;
55065;SDS011;40964;42.114;24.220;2023-04-03T01:52:20;1.23;;;1.10;;
55065;SDS011;40964;42.114;24.220;2023-04-03T01:54:45;1.13;;;0.70;;
55065;SDS011;40964;42.114;24.220;2023-04-03T01:57:11;2.33;;;0.95;;
55065;SDS011;40964;42.114;24.220;2023-04-03T01:59:38;1.88;;;1.15;;
55065;SDS011;40964;42.114;24.220;2023-04-03T02:02:03;2.35;;;0.90;;
55065;SDS011;40964;42.114;24.220;2023-04-03T02:04:29;2.20;;;1.45;;
55065;SDS011;40964;42.114;24.220;2023-04-03T02:06:55;2.38;;;1.10;;
55065;SDS011;40964;42.114;24.220;2023-04-03T02:09:20;1.40;;;0.88;;
55065;SDS011;40964;42.114;24.220;2023-04-03T02:11:45;2.80;;;1.30;;
55065;SDS011;40964;42.114;24.220;2023-04-03T02:14:11;3.05;;;1.15;;
55065;SDS011;40964;42.114;24.220;2023-04-03T02:16:36;1.40;;;1.10;;
55065;SDS011;40964;42.114;24.220;2023-04-03T02:19:02;1.75;;;1.20;;
55065;SDS011;40964;42.114;24.220;2023-04-03T02:21:27;5.05;;;2.22;;
55065;SDS011;40964;42.114;24.220;2023-04-03T02:23:53;4.25;;;1.90;;
55065;SDS011;40964;42.114;24.220;2023-04-03T02:26:18;1.50;;;0.80;;
55065;SDS011;40964;42.114;24.220;2023-04-03T02:28:44;1.02;;;0.70;;
55065;SDS011;40964;42.114;24.220;2023-04-03T02:31:10;1.05;;;0.80;;
55065;SDS011;40964;42.114;24.220;2023-04-03T02:33:36;5.68;;;1.17;;
55065;SDS011;40964;42.114;24.220;2023-04-03T02:36:06;2.63;;;1.73;;
55065;SDS011;40964;42.114;24.220;2023-04-03T02:38:32;2.20;;;1.42;;
55065;SDS011;40964;42.114;24.220;2023-04-03T02:41:04;1.30;;;1.02;;
55065;SDS011;40964;42.114;24.220;2023-04-03T02:43:33;1.33;;;0.90;;
55065;SDS011;40964;42.114;24.220;2023-04-03T02:45:59;1.50;;;0.93;;
55065;SDS011;40964;42.114;24.220;2023-04-03T02:48:25;2.05;;;1.00;;
55065;SDS011;40964;42.114;24.220;2023-04-03T02:50:51;0.90;;;0.90;;
55065;SDS011;40964;42.114;24.220;2023-04-03T02:53:17;1.20;;;1.10;;
55065;SDS011;40964;42.114;24.220;2023-04-03T02:55:43;3.45;;;0.98;;
55065;SDS011;40964;42.114;24.220;2023-04-03T02:58:09;1.65;;;1.20;;
55065;SDS011;40964;42.114;24.220;2023-04-03T03:00:34;1.65;;;0.90;;
55065;SDS011;40964;42.114;24.220;2023-04-03T03:03:00;0.88;;;0.88;;
55065;SDS011;40964;42.114;24.220;2023-04-03T03:05:26;2.35;;;0.98;;
55065;SDS011;40964;42.114;24.220;2023-04-03T03:07:52;1.80;;;0.90;;
55065;SDS011;40964;42.114;24.220;2023-04-03T03:10:17;1.38;;;0.93;;
55065;SDS011;40964;42.114;24.220;2023-04-03T03:12:43;1.10;;;0.90;;
55065;SDS011;40964;42.114;24.220;2023-04-03T03:15:08;0.98;;;0.88;;
55065;SDS011;40964;42.114;24.220;2023-04-03T03:17:34;1.35;;;0.80;;
55065;SDS011;40964;42.114;24.220;2023-04-03T03:20:01;1.27;;;1.10;;
55065;SDS011;40964;42.114;24.220;2023-04-03T03:25:03;0.80;;;0.80;;
55065;SDS011;40964;42.114;24.220;2023-04-03T03:27:28;0.90;;;0.82;;
55065;SDS011;40964;42.114;24.220;2023-04-03T03:29:54;1.10;;;0.90;;
55065;SDS011;40964;42.114;24.220;2023-04-03T03:32:20;0.60;;;0.60;;
55065;SDS011;40964;42.114;24.220;2023-04-03T03:34:45;1.77;;;0.80;;
55065;SDS011;40964;42.114;24.220;2023-04-03T03:37:10;1.35;;;0.90;;
55065;SDS011;40964;42.114;24.220;2023-04-03T03:39:36;2.13;;;1.08;;
55065;SDS011;40964;42.114;24.220;2023-04-03T03:42:01;2.38;;;1.63;;
55065;SDS011;40964;42.114;24.220;2023-04-03T03:44:27;5.25;;;1.92;;
55065;SDS011;40964;42.114;24.220;2023-04-03T03:46:54;8.05;;;4.13;;
55065;SDS011;40964;42.114;24.220;2023-04-03T03:49:20;6.32;;;4.43;;
55065;SDS011;40964;42.114;24.220;2023-04-03T03:51:45;6.45;;;3.30;;
55065;SDS011;40964;42.114;24.220;2023-04-03T03:54:12;3.78;;;2.70;;
55065;SDS011;40964;42.114;24.220;2023-04-03T03:56:37;4.70;;;2.47;;
55065;SDS011;40964;42.114;24.220;2023-04-03T03:59:03;2.33;;;1.80;;
55065;SDS011;40964;42.114;24.220;2023-04-03T04:01:28;2.65;;;1.77;;
55065;SDS011;40964;42.114;24.220;2023-04-03T04:03:54;2.80;;;2.10;;
55065;SDS011;40964;42.114;24.220;2023-04-03T04:06:20;2.38;;;2.05;;
55065;SDS011;40964;42.114;24.220;2023-04-03T04:08:46;2.88;;;2.15;;
55065;SDS011;40964;42.114;24.220;2023-04-03T04:11:12;5.63;;;1.80;;
55065;SDS011;40964;42.114;24.220;2023-04-03T04:13:37;2.38;;;1.42;;
55065;SDS011;40964;42.114;24.220;2023-04-03T04:16:03;1.08;;;0.98;;
55065;SDS011;40964;42.114;24.220;2023-04-03T04:18:28;0.82;;;0.82;;
55065;SDS011;40964;42.114;24.220;2023-04-03T04:20:54;1.27;;;0.85;;
55065;SDS011;40964;42.114;24.220;2023-04-03T04:23:19;1.33;;;0.90;;
55065;SDS011;40964;42.114;24.220;2023-04-03T04:25:45;1.52;;;1.40;;
55065;SDS011;40964;42.114;24.220;2023-04-03T04:28:12;2.70;;;1.65;;
55065;SDS011;40964;42.114;24.220;2023-04-03T04:30:38;3.63;;;2.67;;
55065;SDS011;40964;42.114;24.220;2023-04-03T04:33:03;3.38;;;2.00;;
55065;SDS011;40964;42.114;24.220;2023-04-03T04:35:29;3.88;;;1.50;;
55065;SDS011;40964;42.114;24.220;2023-04-03T04:37:54;2.70;;;1.70;;
55065;SDS011;40964;42.114;24.220;2023-04-03T04:40:20;5.78;;;1.65;;
55065;SDS011;40964;42.114;24.220;2023-04-03T04:42:45;2.58;;;1.58;;
55065;SDS011;40964;42.114;24.220;2023-04-03T04:45:11;2.28;;;1.52;;
55065;SDS011;40964;42.114;24.220;2023-04-03T04:47:36;2.33;;;1.13;;
55065;SDS011;40964;42.114;24.220;2023-04-03T04:50:02;4.55;;;2.35;;
55065;SDS011;40964;42.114;24.220;2023-04-03T04:52:28;4.53;;;1.83;;
55065;SDS011;40964;42.114;24.220;2023-04-03T04:54:53;1.75;;;1.52;;
55065;SDS011;40964;42.114;24.220;2023-04-03T04:57:19;5.55;;;1.77;;
55065;SDS011;40964;42.114;24.220;2023-04-03T04:59:44;2.22;;;1.50;;
55065;SDS011;40964;42.114;24.220;2023-04-03T05:02:09;2.75;;;1.73;;
55065;SDS011;40964;42.114;24.220;2023-04-03T05:04:35;2.20;;;1.60;;
55065;SDS011;40964;42.114;24.220;2023-04-03T05:07:00;2.33;;;1.98;;
55065;SDS011;40964;42.114;24.220;2023-04-03T05:09:26;2.20;;;2.00;;
55065;SDS011;40964;42.114;24.220;2023-04-03T05:11:51;2.78;;;1.80;;
55065;SDS011;40964;42.114;24.220;2023-04-03T05:14:16;9.93;;;2.28;;
55065;SDS011;40964;42.114;24.220;2023-04-03T05:16:42;4.53;;;2.13;;
55065;SDS011;40964;42.114;24.220;2023-04-03T05:19:07;6.88;;;2.75;;
55065;SDS011;40964;42.114;24.220;2023-04-03T05:21:33;4.00;;;2.97;;
55065;SDS011;40964;42.114;24.220;2023-04-03T05:23:59;4.35;;;2.97;;
55065;SDS011;40964;42.114;24.220;2023-04-03T05:26:27;4.13;;;2.40;;
55065;SDS011;40964;42.114;24.220;2023-04-03T05:28:53;5.63;;;3.00;;
55065;SDS011;40964;42.114;24.220;2023-04-03T05:31:18;3.38;;;2.65;;
55065;SDS011;40964;42.114;24.220;2023-04-03T05:33:44;4.97;;;3.33;;
55065;SDS011;40964;42.114;24.220;2023-04-03T05:36:11;5.03;;;2.67;;
55065;SDS011;40964;42.114;24.220;2023-04-03T05:38:37;3.53;;;2.65;;
55065;SDS011;40964;42.114;24.220;2023-04-03T05:41:03;7.43;;;3.10;;
55065;SDS011;40964;42.114;24.220;2023-04-03T05:43:29;4.53;;;2.70;;
55065;SDS011;40964;42.114;24.220;2023-04-03T05:45:55;4.50;;;2.70;;
55065;SDS011;40964;42.114;24.220;2023-04-03T05:48:20;3.15;;;2.53;;
55065;SDS011;40964;42.114;24.220;2023-04-03T05:50:46;2.88;;;2.25;;
55065;SDS011;40964;42.114;24.220;2023-04-03T05:53:30;3.45;;;2.88;;
55065;SDS011;40964;42.114;24.220;2023-04-03T05:55:58;6.65;;;2.83;;
55065;SDS011;40964;42.114;24.220;2023-04-03T05:58:24;4.20;;;3.08;;
55065;SDS011;40964;42.114;24.220;2023-04-03T06:00:49;3.28;;;2.42;;
55065;SDS011;40964;42.114;24.220;2023-04-03T06:03:14;6.35;;;2.72;;
55065;SDS011;40964;42.114;24.220;2023-04-03T06:05:40;8.02;;;4.13;;
55065;SDS011;40964;42.114;24.220;2023-04-03T06:08:06;7.95;;;3.15;;
55065;SDS011;40964;42.114;24.220;2023-04-03T06:10:32;5.90;;;3.08;;
55065;SDS011;40964;42.114;24.220;2023-04-03T06:12:57;6.47;;;2.58;;
55065;SDS011;40964;42.114;24.220;2023-04-03T06:15:23;3.17;;;2.10;;
55065;SDS011;40964;42.114;24.220;2023-04-03T06:17:48;3.83;;;2.10;;
55065;SDS011;40964;42.114;24.220;2023-04-03T06:20:14;5.40;;;2.40;;
55065;SDS011;40964;42.114;24.220;2023-04-03T06:25:17;3.28;;;2.25;;
55065;SDS011;40964;42.114;24.220;2023-04-03T06:27:44;3.00;;;2.20;;
55065;SDS011;40964;42.114;24.220;2023-04-03T06:30:10;3.38;;;2.10;;
55065;SDS011;40964;42.114;24.220;2023-04-03T06:32:36;4.32;;;2.67;;
55065;SDS011;40964;42.114;24.220;2023-04-03T06:35:02;4.75;;;2.20;;
55065;SDS011;40964;42.114;24.220;2023-04-03T06:37:28;6.43;;;4.47;;
55065;SDS011;40964;42.114;24.220;2023-04-03T06:39:55;11.77;;;7.00;;
55065;SDS011;40964;42.114;24.220;2023-04-03T06:42:21;8.43;;;4.95;;
55065;SDS011;40964;42.114;24.220;2023-04-03T06:44:46;8.65;;;5.53;;
55065;SDS011;40964;42.114;24.220;2023-04-03T06:47:13;9.55;;;5.07;;
55065;SDS011;40964;42.114;24.220;2023-04-03T06:49:39;4.88;;;4.07;;
55065;SDS011;40964;42.114;24.220;2023-04-03T06:52:06;4.50;;;3.22;;
55065;SDS011;40964;42.114;24.220;2023-04-03T06:54:32;5.88;;;3.72;;
55065;SDS011;40964;42.114;24.220;2023-04-03T06:56:58;4.35;;;3.00;;
55065;SDS011;40964;42.114;24.220;2023-04-03T06:59:24;3.53;;;2.70;;
55065;SDS011;40964;42.114;24.220;2023-04-03T07:01:50;4.85;;;2.83;;
55065;SDS011;40964;42.114;24.220;2023-04-03T07:04:16;5.65;;;3.08;;
55065;SDS011;40964;42.114;24.220;2023-04-03T07:06:41;7.28;;;3.35;;
55065;SDS011;40964;42.114;24.220;2023-04-03T07:09:08;6.35;;;3.15;;
55065;SDS011;40964;42.114;24.220;2023-04-03T07:11:34;12.60;;;6.97;;
55065;SDS011;40964;42.114;24.220;2023-04-03T07:14:01;8.80;;;5.05;;
55065;SDS011;40964;42.114;24.220;2023-04-03T07:16:27;5.40;;;3.25;;
55065;SDS011;40964;42.114;24.220;2023-04-03T07:18:53;4.28;;;3.17;;
55065;SDS011;40964;42.114;24.220;2023-04-03T07:21:18;3.85;;;2.60;;
55065;SDS011;40964;42.114;24.220;2023-04-03T07:23:44;9.05;;;4.95;;
55065;SDS011;40964;42.114;24.220;2023-04-03T07:26:09;6.53;;;3.78;;
55065;SDS011;40964;42.114;24.220;2023-04-03T07:28:35;6.25;;;2.90;;
55065;SDS011;40964;42.114;24.220;2023-04-03T07:31:05;4.72;;;2.55;;
55065;SDS011;40964;42.114;24.220;2023-04-03T07:33:33;3.45;;;2.38;;
55065;SDS011;40964;42.114;24.220;2023-04-03T07:36:00;7.90;;;4.28;;
55065;SDS011;40964;42.114;24.220;2023-04-03T07:38:27;15.73;;;9.10;;
55065;SDS011;40964;42.114;24.220;2023-04-03T07:40:52;17.05;;;9.80;;
55065;SDS011;40964;42.114;24.220;2023-04-03T07:43:18;14.88;;;7.60;;
55065;SDS011;40964;42.114;24.220;2023-04-03T07:45:46;8.88;;;4.88;;
55065;SDS011;40964;42.114;24.220;2023-04-03T07:48:15;11.05;;;6.10;;
55065;SDS011;40964;42.114;24.220;2023-04-03T07:50:41;7.32;;;4.47;;
55065;SDS011;40964;42.114;24.220;2023-04-03T07:53:07;9.38;;;6.00;;
55065;SDS011;40964;42.114;24.220;2023-04-03T07:55:32;8.23;;;3.17;;
55065;SDS011;40964;42.114;24.220;2023-04-03T07:57:58;4.32;;;2.80;;
55065;SDS011;40964;42.114;24.220;2023-04-03T08:00:24;5.13;;;3.10;;
55065;SDS011;40964;42.114;24.220;2023-04-03T08:02:50;6.95;;;4.25;;
55065;SDS011;40964;42.114;24.220;2023-04-03T08:05:20;4.68;;;3.65;;
55065;SDS011;40964;42.114;24.220;2023-04-03T08:07:46;6.32;;;2.67;;
55065;SDS011;40964;42.114;24.220;2023-04-03T08:10:13;4.25;;;2.25;;
55065;SDS011;40964;42.114;24.220;2023-04-03T08:12:39;2.92;;;2.30;;
55065;SDS011;40964;42.114;24.220;2023-04-03T08:15:05;2.88;;;2.58;;
55065;SDS011;40964;42.114;24.220;2023-04-03T08:17:32;5.72;;;2.90;;
55065;SDS011;40964;42.114;24.220;2023-04-03T08:19:57;4.18;;;2.70;;
55065;SDS011;40964;42.114;24.220;2023-04-03T08:22:23;7.15;;;3.28;;
55065;SDS011;40964;42.114;24.220;2023-04-03T08:24:48;4.05;;;3.22;;
55065;SDS011;40964;42.114;24.220;2023-04-03T08:27:14;4.10;;;3.03;;
55065;SDS011;40964;42.114;24.220;2023-04-03T08:29:40;6.10;;;3.67;;
55065;SDS011;40964;42.114;24.220;2023-04-03T08:32:05;7.50;;;3.40;;
55065;SDS011;40964;42.114;24.220;2023-04-03T08:34:31;5.03;;;3.17;;
55065;SDS011;40964;42.114;24.220;2023-04-03T08:36:59;4.55;;;3.30;;
55065;SDS011;40964;42.114;24.220;2023-04-03T08:39:25;7.03;;;3.50;;
55065;SDS011;40964;42.114;24.220;2023-04-03T08:41:51;8.50;;;4.22;;
55065;SDS011;40964;42.114;24.220;2023-04-03T08:49:52;5.70;;;3.85;;
55065;SDS011;40964;42.114;24.220;2023-04-03T08:52:19;6.03;;;4.18;;
55065;SDS011;40964;42.114;24.220;2023-04-03T08:55:10;8.68;;;4.32;;
55065;SDS011;40964;42.114;24.220;2023-04-03T08:57:43;4.10;;;3.42;;
55065;SDS011;40964;42.114;24.220;2023-04-03T09:02:49;5.60;;;3.47;;
55065;SDS011;40964;42.114;24.220;2023-04-03T09:05:20;7.50;;;3.92;;
55065;SDS011;40964;42.114;24.220;2023-04-03T09:10:32;7.65;;;4.00;;
55065;SDS011;40964;42.114;24.220;2023-04-03T09:15:35;4.95;;;3.35;;
55065;SDS011;40964;42.114;24.220;2023-04-03T09:18:16;6.75;;;3.45;;
55065;SDS011;40964;42.114;24.220;2023-04-03T09:25:48;3.65;;;3.03;;
55065;SDS011;40964;42.114;24.220;2023-04-03T09:28:16;6.32;;;3.92;;
55065;SDS011;40964;42.114;24.220;2023-04-03T09:30:41;7.50;;;4.70;;
55065;SDS011;40964;42.114;24.220;2023-04-03T09:33:07;6.55;;;4.10;;
55065;SDS011;40964;42.114;24.220;2023-04-03T09:35:34;6.30;;;4.18;;
55065;SDS011;40964;42.114;24.220;2023-04-03T09:40:37;9.23;;;5.40;;
55065;SDS011;40964;42.114;24.220;2023-04-03T09:43:19;7.20;;;4.80;;
55065;SDS011;40964;42.114;24.220;2023-04-03T09:45:52;7.57;;;4.50;;
55065;SDS011;40964;42.114;24.220;2023-04-03T09:48:19;7.10;;;4.40;;
55065;SDS011;40964;42.114;24.220;2023-04-03T09:56:18;6.07;;;4.15;;
55065;SDS011;40964;42.114;24.220;2023-04-03T09:58:51;6.75;;;4.10;;
55065;SDS011;40964;42.114;24.220;2023-04-03T10:01:30;7.30;;;4.10;;
55065;SDS011;40964;42.114;24.220;2023-04-03T10:06:45;7.00;;;4.30;;
55065;SDS011;40964;42.114;24.220;2023-04-03T10:15:10;7.22;;;4.80;;
55065;SDS011;40964;42.114;24.220;2023-04-03T10:28:45;9.85;;;6.70;;
55065;SDS011;40964;42.114;24.220;2023-04-03T10:46:49;5.00;;;3.53;;
55065;SDS011;40964;42.114;24.220;2023-04-03T10:54:39;5.30;;;4.07;;
55065;SDS011;40964;42.114;24.220;2023-04-03T10:57:11;8.02;;;5.47;;
55065;SDS011;40964;42.114;24.220;2023-04-03T11:05:04;16.50;;;10.30;;
55065;SDS011;40964;42.114;24.220;2023-04-03T11:07:38;11.05;;;6.32;;
55065;SDS011;40964;42.114;24.220;2023-04-03T11:12:48;6.18;;;4.53;;
55065;SDS011;40964;42.114;24.220;2023-04-03T11:15:29;6.78;;;5.03;;
55065;SDS011;40964;42.114;24.220;2023-04-03T11:17:58;11.82;;;5.00;;
55065;SDS011;40964;42.114;24.220;2023-04-03T11:20:29;8.10;;;5.47;;
55065;SDS011;40964;42.114;24.220;2023-04-03T11:23:13;6.88;;;5.32;;
55065;SDS011;40964;42.114;24.220;2023-04-03T11:25:56;6.93;;;4.68;;
55065;SDS011;40964;42.114;24.220;2023-04-03T11:28:32;8.65;;;4.18;;
55065;SDS011;40964;42.114;24.220;2023-04-03T11:37:16;5.10;;;3.40;;
55065;SDS011;40964;42.114;24.220;2023-04-03T11:39:54;7.47;;;3.60;;
55065;SDS011;40964;42.114;24.220;2023-04-03T11:42:42;5.78;;;3.83;;
55065;SDS011;40964;42.114;24.220;2023-04-03T12:13:42;5.40;;;4.07;;
55065;SDS011;40964;42.114;24.220;2023-04-03T12:29:39;10.15;;;5.20;;
55065;SDS011;40964;42.114;24.220;2023-04-03T12:35:27;9.60;;;5.45;;
55065;SDS011;40964;42.114;24.220;2023-04-03T12:46:15;9.75;;;5.50;;
55065;SDS011;40964;42.114;24.220;2023-04-03T12:51:12;9.40;;;5.45;;
55065;SDS011;40964;42.114;24.220;2023-04-03T12:53:40;8.63;;;5.05;;
55065;SDS011;40964;42.114;24.220;2023-04-03T12:59:12;8.77;;;4.80;;
55065;SDS011;40964;42.114;24.220;2023-04-03T13:01:41;7.38;;;4.93;;
55065;SDS011;40964;42.114;24.220;2023-04-03T13:04:09;7.05;;;5.05;;
55065;SDS011;40964;42.114;24.220;2023-04-03T13:06:43;9.52;;;5.55;;
55065;SDS011;40964;42.114;24.220;2023-04-03T13:09:25;12.20;;;6.55;;
55065;SDS011;40964;42.114;24.220;2023-04-03T13:12:00;10.85;;;6.75;;
55065;SDS011;40964;42.114;24.220;2023-04-03T13:14:28;15.20;;;7.60;;
55065;SDS011;40964;42.114;24.220;2023-04-03T13:17:09;20.58;;;7.68;;
55065;SDS011;40964;42.114;24.220;2023-04-03T13:19:38;10.98;;;6.47;;
55065;SDS011;40964;42.114;24.220;2023-04-03T13:22:05;14.35;;;7.55;;
55065;SDS011;40964;42.114;24.220;2023-04-03T13:24:44;13.38;;;7.80;;
55065;SDS011;40964;42.114;24.220;2023-04-03T13:27:13;18.20;;;9.13;;
55065;SDS011;40964;42.114;24.220;2023-04-03T13:29:39;14.05;;;7.93;;
55065;SDS011;40964;42.114;24.220;2023-04-03T13:32:05;15.15;;;8.02;;
55065;SDS011;40964;42.114;24.220;2023-04-03T13:34:36;15.00;;;8.27;;
55065;SDS011;40964;42.114;24.220;2023-04-03T13:37:06;28.63;;;12.70;;
55065;SDS011;40964;42.114;24.220;2023-04-03T13:39:36;21.25;;;10.30;;
55065;SDS011;40964;42.114;24.220;2023-04-03T13:44:47;20.35;;;9.43;;
55065;SDS011;40964;42.114;24.220;2023-04-03T13:49:39;22.85;;;11.25;;
55065;SDS011;40964;42.114;24.220;2023-04-03T14:00:49;21.08;;;11.30;;
55065;SDS011;40964;42.114;24.220;2023-04-03T14:05:50;19.73;;;10.98;;
55065;SDS011;40964;42.114;24.220;2023-04-03T14:08:16;33.15;;;15.57;;
55065;SDS011;40964;42.114;24.220;2023-04-03T14:10:42;24.25;;;12.30;;
55065;SDS011;40964;42.114;24.220;2023-04-03T14:13:12;25.02;;;10.35;;
55065;SDS011;40964;42.114;24.220;2023-04-03T14:15:40;14.35;;;8.50;;
55065;SDS011;40964;42.114;24.220;2023-04-03T14:18:10;18.33;;;9.68;;
55065;SDS011;40964;42.114;24.220;2023-04-03T14:20:39;21.40;;;9.82;;
55065;SDS011;40964;42.114;24.220;2023-04-03T14:23:05;17.08;;;9.60;;
55065;SDS011;40964;42.114;24.220;2023-04-03T14:25:31;12.57;;;7.20;;
55065;SDS011;40964;42.114;24.220;2023-04-03T14:27:57;11.73;;;6.88;;
55065;SDS011;40964;42.114;24.220;2023-04-03T14:30:30;10.52;;;6.15;;
55065;SDS011;40964;42.114;24.220;2023-04-03T14:32:57;13.45;;;6.53;;
55065;SDS011;40964;42.114;24.220;2023-04-03T14:35:23;11.75;;;6.70;;
55065;SDS011;40964;42.114;24.220;2023-04-03T14:37:49;9.60;;;6.38;;
55065;SDS011;40964;42.114;24.220;2023-04-03T14:40:18;9.68;;;6.35;;
55065;SDS011;40964;42.114;24.220;2023-04-03T14:42:46;16.60;;;9.27;;
55065;SDS011;40964;42.114;24.220;2023-04-03T14:45:14;12.73;;;7.30;;
55065;SDS011;40964;42.114;24.220;2023-04-03T14:47:42;13.30;;;7.20;;
55065;SDS011;40964;42.114;24.220;2023-04-03T14:50:16;12.27;;;7.07;;
55065;SDS011;40964;42.114;24.220;2023-04-03T14:52:52;11.35;;;7.30;;
55065;SDS011;40964;42.114;24.220;2023-04-03T14:55:20;14.40;;;8.20;;
55065;SDS011;40964;42.114;24.220;2023-04-03T14:57:47;14.48;;;7.70;;
55065;SDS011;40964;42.114;24.220;2023-04-03T15:00:16;13.30;;;7.60;;
55065;SDS011;40964;42.114;24.220;2023-04-03T15:02:43;14.27;;;7.78;;
55065;SDS011;40964;42.114;24.220;2023-04-03T15:05:10;15.48;;;9.07;;
55065;SDS011;40964;42.114;24.220;2023-04-03T15:07:43;13.80;;;8.38;;
55065;SDS011;40964;42.114;24.220;2023-04-03T15:12:44;15.85;;;9.02;;
55065;SDS011;40964;42.114;24.220;2023-04-03T15:15:10;16.77;;;9.25;;
55065;SDS011;40964;42.114;24.220;2023-04-03T15:17:37;17.48;;;9.77;;
55065;SDS011;40964;42.114;24.220;2023-04-03T15:20:05;14.77;;;8.82;;
55065;SDS011;40964;42.114;24.220;2023-04-03T15:22:37;17.10;;;8.02;;
55065;SDS011;40964;42.114;24.220;2023-04-03T15:25:03;15.00;;;8.00;;
55065;SDS011;40964;42.114;24.220;2023-04-03T15:27:28;16.30;;;9.75;;
55065;SDS011;40964;42.114;24.220;2023-04-03T15:29:54;24.27;;;11.75;;
55065;SDS011;40964;42.114;24.220;2023-04-03T15:32:19;12.02;;;7.63;;
55065;SDS011;40964;42.114;24.220;2023-04-03T15:34:45;12.52;;;7.57;;
55065;SDS011;40964;42.114;24.220;2023-04-03T15:37:11;14.57;;;8.25;;
55065;SDS011;40964;42.114;24.220;2023-04-03T15:39:36;11.77;;;7.50;;
55065;SDS011;40964;42.114;24.220;2023-04-03T15:42:01;12.82;;;6.40;;
55065;SDS011;40964;42.114;24.220;2023-04-03T15:44:34;8.57;;;5.05;;
55065;SDS011;40964;42.114;24.220;2023-04-03T15:47:00;8.73;;;4.97;;
55065;SDS011;40964;42.114;24.220;2023-04-03T15:49:26;7.88;;;5.10;;
55065;SDS011;40964;42.114;24.220;2023-04-03T15:51:52;10.13;;;6.05;;
55065;SDS011;40964;42.114;24.220;2023-04-03T15:54:18;11.93;;;7.03;;
55065;SDS011;40964;42.114;24.220;2023-04-03T15:56:44;15.23;;;8.80;;
55065;SDS011;40964;42.114;24.220;2023-04-03T15:59:11;14.40;;;8.45;;
55065;SDS011;40964;42.114;24.220;2023-04-03T16:01:36;16.10;;;9.07;;
55065;SDS011;40964;42.114;24.220;2023-04-03T16:04:04;20.90;;;10.25;;
55065;SDS011;40964;42.114;24.220;2023-04-03T16:06:32;22.33;;;12.07;;
55065;SDS011;40964;42.114;24.220;2023-04-03T16:08:58;26.05;;;13.68;;
55065;SDS011;40964;42.114;24.220;2023-04-03T16:11:26;24.05;;;12.93;;
55065;SDS011;40964;42.114;24.220;2023-04-03T16:13:52;25.42;;;12.40;;
55065;SDS011;40964;42.114;24.220;2023-04-03T16:16:18;22.23;;;13.05;;
55065;SDS011;40964;42.114;24.220;2023-04-03T16:18:44;25.77;;;14.02;;
55065;SDS011;40964;42.114;24.220;2023-04-03T16:21:11;26.35;;;13.65;;
55065;SDS011;40964;42.114;24.220;2023-04-03T16:23:38;25.40;;;12.63;;
55065;SDS011;40964;42.114;24.220;2023-04-03T16:26:05;19.42;;;11.00;;
55065;SDS011;40964;42.114;24.220;2023-04-03T16:28:30;18.40;;;9.88;;
55065;SDS011;40964;42.114;24.220;2023-04-03T16:30:56;18.23;;;10.93;;
55065;SDS011;40964;42.114;24.220;2023-04-03T16:33:22;29.73;;;15.20;;
55065;SDS011;40964;42.114;24.220;2023-04-03T16:35:49;25.50;;;13.73;;
55065;SDS011;40964;42.114;24.220;2023-04-03T16:38:15;16.73;;;8.73;;
55065;SDS011;40964;42.114;24.220;2023-04-03T16:40:41;15.18;;;9.32;;
55065;SDS011;40964;42.114;24.220;2023-04-03T16:43:06;17.67;;;8.90;;
55065;SDS011;40964;42.114;24.220;2023-04-03T16:45:32;15.73;;;8.32;;
55065;SDS011;40964;42.114;24.220;2023-04-03T16:47:58;18.15;;;10.00;;
55065;SDS011;40964;42.114;24.220;2023-04-03T16:50:23;25.00;;;13.38;;
55065;SDS011;40964;42.114;24.220;2023-04-03T16:52:49;34.67;;;17.15;;
55065;SDS011;40964;42.114;24.220;2023-04-03T16:55:14;44.67;;;23.60;;
55065;SDS011;40964;42.114;24.220;2023-04-03T16:57:40;38.20;;;20.33;;
55065;SDS011;40964;42.114;24.220;2023-04-03T17:00:06;32.88;;;19.50;;
55065;SDS011;40964;42.114;24.220;2023-04-03T17:02:32;32.38;;;17.67;;
55065;SDS011;40964;42.114;24.220;2023-04-03T17:04:57;32.92;;;16.90;;
55065;SDS011;40964;42.114;24.220;2023-04-03T17:07:23;29.88;;;15.68;;
55065;SDS011;40964;42.114;24.220;2023-04-03T17:09:50;22.80;;;14.32;;
55065;SDS011;40964;42.114;24.220;2023-04-03T17:12:16;20.45;;;12.05;;
55065;SDS011;40964;42.114;24.220;2023-04-03T17:14:42;21.08;;;12.10;;
55065;SDS011;40964;42.114;24.220;2023-04-03T17:17:08;18.48;;;10.27;;
55065;SDS011;40964;42.114;24.220;2023-04-03T17:19:34;15.98;;;8.40;;
55065;SDS011;40964;42.114;24.220;2023-04-03T17:22:00;16.50;;;8.20;;
55065;SDS011;40964;42.114;24.220;2023-04-03T17:24:26;15.88;;;7.53;;
55065;SDS011;40964;42.114;24.220;2023-04-03T17:26:52;12.45;;;6.63;;
55065;SDS011;40964;42.114;24.220;2023-04-03T17:29:18;11.90;;;6.28;;
55065;SDS011;40964;42.114;24.220;2023-04-03T17:31:44;12.98;;;6.57;;
55065;SDS011;40964;42.114;24.220;2023-04-03T17:34:10;15.60;;;8.63;;